Time;durP1;ratioP1;P1;durP2;ratioP2;P2;SDS_P1;SDS_P2;PMS_P1;PMS_P2;Temp;Humidity;BMP_temperature;BMP_pressure;BME280_temperature;BME280_humidity;BME280_pressure;Samples;Min_cycle;Max_cycle;Signal;HPM_P1;HPM_P2
2022/07/10 00:01:11;;;;;;;5.38;1.77;;;13.90;99.90;;;;;;5027933;28;20389;-82
2022/07/10 00:03:36;;;;;;;5.50;2.00;;;14.00;99.90;;;;;;5032168;28;20381;-82
2022/07/10 00:06:02;;;;;;;8.23;2.30;;;14.00;99.90;;;;;;5029395;28;20878;-82
2022/07/10 00:08:28;;;;;;;5.20;1.88;;;14.10;99.90;;;;;;5011759;28;20413;-81
2022/07/10 00:10:53;;;;;;;8.17;2.17;;;14.10;99.90;;;;;;5011038;28;20417;-82
2022/07/10 00:13:19;;;;;;;6.82;2.03;;;14.10;99.90;;;;;;5011390;28;21034;-81
2022/07/10 00:15:45;;;;;;;7.95;2.22;;;14.10;99.90;;;;;;5011671;28;20395;-82
2022/07/10 00:18:11;;;;;;;5.57;1.80;;;14.00;99.90;;;;;;5016288;28;20908;-80
2022/07/10 00:20:37;;;;;;;5.65;1.85;;;14.20;99.90;;;;;;5011226;28;20414;-81
2022/07/10 00:23:02;;;;;;;6.13;2.03;;;14.20;99.90;;;;;;5009615;28;20418;-82
2022/07/10 00:25:30;;;;;;;6.00;1.60;;;14.30;99.90;;;;;;5021259;28;20392;-83
2022/07/10 00:27:55;;;;;;;5.78;1.80;;;14.20;99.90;;;;;;5028717;28;20381;-82
2022/07/10 00:30:21;;;;;;;6.93;1.80;;;14.20;99.90;;;;;;5014776;28;20457;-82
2022/07/10 00:32:46;;;;;;;6.75;2.15;;;14.20;99.90;;;;;;5026130;28;20373;-82
2022/07/10 00:35:12;;;;;;;7.80;1.90;;;14.10;99.90;;;;;;5030248;28;20815;-82
2022/07/10 00:37:38;;;;;;;6.60;1.80;;;14.20;99.90;;;;;;5028269;28;20851;-82
2022/07/10 00:40:04;;;;;;;8.60;1.80;;;14.20;99.90;;;;;;5030387;28;20744;-82
2022/07/10 00:42:30;;;;;;;4.80;1.70;;;14.10;99.90;;;;;;5030050;28;20728;-83
2022/07/10 00:44:56;;;;;;;5.78;1.70;;;14.20;99.90;;;;;;5030529;28;20390;-82
2022/07/10 00:47:22;;;;;;;5.70;1.60;;;14.30;99.90;;;;;;5028563;28;20480;-83
2022/07/10 00:49:48;;;;;;;7.53;1.77;;;14.30;99.90;;;;;;5030356;28;21198;-82
2022/07/10 00:52:17;;;;;;;8.63;2.00;;;14.30;99.90;;;;;;5030271;28;20386;-82
2022/07/10 00:54:45;;;;;;;7.03;1.73;;;14.30;99.90;;;;;;5028864;28;20628;-81
2022/07/10 00:57:14;;;;;;;4.93;1.50;;;14.40;99.90;;;;;;5030716;28;20511;-82
2022/07/10 00:59:40;;;;;;;3.92;1.58;;;14.30;99.90;;;;;;5028984;28;20463;-82
2022/07/10 01:02:06;;;;;;;3.97;1.60;;;14.40;99.90;;;;;;5030522;28;20779;-83
2022/07/10 01:04:32;;;;;;;5.78;1.70;;;14.40;99.90;;;;;;5028863;28;20739;-84
2022/07/10 01:06:58;;;;;;;5.97;1.77;;;14.40;99.90;;;;;;5029968;28;20451;-82
2022/07/10 01:09:24;;;;;;;6.32;1.70;;;14.40;99.90;;;;;;5027833;28;20808;-82
2022/07/10 01:11:50;;;;;;;6.10;1.55;;;14.30;99.90;;;;;;5029591;28;20476;-83
2022/07/10 01:14:16;;;;;;;5.30;1.40;;;14.30;99.90;;;;;;5028458;28;20802;-82
2022/07/10 01:16:42;;;;;;;5.55;1.52;;;14.30;99.90;;;;;;5029615;28;20894;-82
2022/07/10 01:19:08;;;;;;;5.20;1.85;;;14.30;99.90;;;;;;5029060;28;20515;-83
2022/07/10 01:21:35;;;;;;;6.13;1.75;;;14.20;99.90;;;;;;5029418;28;20452;-83
2022/07/10 01:24:09;;;;;;;4.85;1.50;;;14.30;99.90;;;;;;5020634;28;20759;-83
2022/07/10 01:26:36;;;;;;;6.47;1.57;;;14.40;99.90;;;;;;5029526;28;20427;-82
2022/07/10 01:29:05;;;;;;;5.70;2.10;;;14.40;99.90;;;;;;5029485;28;20443;-82
2022/07/10 01:31:31;;;;;;;5.53;1.40;;;14.40;99.90;;;;;;5028490;28;20461;-83
2022/07/10 01:33:57;;;;;;;5.32;1.60;;;14.40;99.90;;;;;;5027841;28;20737;-82
2022/07/10 01:36:23;;;;;;;4.27;1.40;;;14.30;99.90;;;;;;5029276;28;20422;-83
2022/07/10 01:38:54;;;;;;;6.03;1.60;;;14.30;99.90;;;;;;5029791;28;20390;-83
2022/07/10 01:41:20;;;;;;;6.05;1.63;;;14.30;99.90;;;;;;5027467;28;20918;-81
2022/07/10 01:43:47;;;;;;;6.30;1.63;;;14.20;99.90;;;;;;5029365;28;20421;-82
2022/07/10 01:46:13;;;;;;;6.30;1.60;;;14.20;99.90;;;;;;5027896;28;20944;-82
2022/07/10 01:48:39;;;;;;;4.63;1.70;;;14.10;99.90;;;;;;5027965;28;20382;-82
2022/07/10 01:51:06;;;;;;;6.55;2.00;;;14.20;99.90;;;;;;5028998;28;20381;-82
2022/07/10 01:53:32;;;;;;;5.30;1.90;;;14.00;99.90;;;;;;5028770;28;20447;-82
2022/07/10 01:55:58;;;;;;;4.72;1.48;;;14.00;99.90;;;;;;5028479;28;20425;-82
2022/07/10 01:58:24;;;;;;;7.78;2.00;;;14.00;99.90;;;;;;5028865;28;20389;-81
2022/07/10 02:00:49;;;;;;;4.88;1.50;;;14.00;99.90;;;;;;5026421;28;20377;-82
2022/07/10 02:05:59;;;;;;;4.05;1.13;;;13.90;99.90;;;;;;5029953;28;20431;-82
2022/07/10 02:08:24;;;;;;;5.30;1.67;;;13.90;99.90;;;;;;5028367;28;20417;-82
2022/07/10 02:10:50;;;;;;;3.90;1.33;;;13.80;99.90;;;;;;5028958;28;20409;-82
2022/07/10 02:13:19;;;;;;;5.47;1.60;;;13.70;99.90;;;;;;5027851;28;20385;-83
2022/07/10 02:15:48;;;;;;;3.75;1.50;;;13.60;99.90;;;;;;5025485;28;20401;-81
2022/07/10 02:18:14;;;;;;;4.30;1.40;;;13.60;99.90;;;;;;5027187;28;20390;-82
2022/07/10 02:20:39;;;;;;;6.50;1.30;;;13.60;99.90;;;;;;5027635;28;20389;-82
2022/07/10 02:23:06;;;;;;;4.85;1.52;;;13.60;99.90;;;;;;5028748;28;20392;-82
2022/07/10 02:25:33;;;;;;;4.72;1.40;;;13.50;99.90;;;;;;5027372;28;20417;-82
2022/07/10 02:27:58;;;;;;;6.68;1.58;;;13.50;99.90;;;;;;5029079;28;20381;-81
2022/07/10 02:30:24;;;;;;;4.78;1.30;;;13.50;99.90;;;;;;5026940;28;20763;-82
2022/07/10 02:32:50;;;;;;;5.50;1.60;;;13.40;99.90;;;;;;5029640;28;20898;-82
2022/07/10 02:35:15;;;;;;;3.72;1.27;;;13.50;99.90;;;;;;5031826;28;20818;-82
2022/07/10 02:37:41;;;;;;;6.30;1.53;;;13.50;99.90;;;;;;5032236;28;20385;-82
2022/07/10 02:40:07;;;;;;;4.23;1.43;;;13.50;99.90;;;;;;5032944;28;20369;-82
2022/07/10 02:42:33;;;;;;;4.20;1.40;;;13.50;99.90;;;;;;5031888;28;20399;-82
2022/07/10 02:44:58;;;;;;;4.77;1.30;;;13.50;99.90;;;;;;5033020;28;20480;-82
2022/07/10 02:47:24;;;;;;;3.00;1.40;;;13.50;99.90;;;;;;5032568;28;20452;-83
2022/07/10 02:49:50;;;;;;;9.27;1.60;;;13.50;99.90;;;;;;5032455;28;20380;-81
2022/07/10 02:52:15;;;;;;;4.50;1.67;;;13.60;99.90;;;;;;5031344;28;20389;-83
2022/07/10 02:54:41;;;;;;;4.60;1.55;;;13.60;99.90;;;;;;5030597;28;20444;-82
2022/07/10 02:57:08;;;;;;;4.57;1.33;;;13.50;99.90;;;;;;5032748;28;20392;-82
2022/07/10 02:59:33;;;;;;;5.18;1.33;;;13.60;99.90;;;;;;5032553;28;20377;-82
2022/07/10 03:01:59;;;;;;;4.20;1.20;;;13.60;99.90;;;;;;5031526;28;20386;-81
2022/07/10 03:04:26;;;;;;;4.80;1.48;;;13.60;99.90;;;;;;5030713;28;20397;-84
2022/07/10 03:06:51;;;;;;;4.30;1.38;;;13.60;99.90;;;;;;5030801;28;20390;-82
2022/07/10 03:09:17;;;;;;;5.57;1.63;;;13.50;99.90;;;;;;5031647;28;20389;-82
2022/07/10 03:11:43;;;;;;;4.00;1.50;;;13.50;99.90;;;;;;5030020;28;20389;-82
2022/07/10 03:14:08;;;;;;;6.53;1.60;;;13.50;99.90;;;;;;5031017;28;20846;-82
2022/07/10 03:16:34;;;;;;;6.07;1.53;;;13.40;99.90;;;;;;5031998;28;20386;-82
2022/07/10 03:19:00;;;;;;;4.75;1.55;;;13.50;99.90;;;;;;5032214;28;20879;-82
2022/07/10 03:21:25;;;;;;;6.13;1.57;;;13.50;99.90;;;;;;5029863;28;20397;-82
2022/07/10 03:23:51;;;;;;;5.90;1.60;;;13.50;99.90;;;;;;5032236;28;20478;-82
2022/07/10 03:26:17;;;;;;;7.78;1.67;;;13.50;99.90;;;;;;5029523;28;20413;-82
2022/07/10 03:28:42;;;;;;;3.47;1.30;;;13.40;99.90;;;;;;5031419;28;20859;-83
2022/07/10 03:31:08;;;;;;;5.40;2.00;;;13.40;99.90;;;;;;5029251;28;20485;-82
2022/07/10 03:33:33;;;;;;;5.28;1.73;;;13.40;99.90;;;;;;5032192;28;20452;-81
2022/07/10 03:36:01;;;;;;;4.60;1.43;;;13.40;99.90;;;;;;5031814;28;20441;-81
2022/07/10 03:38:27;;;;;;;5.43;1.60;;;13.60;99.90;;;;;;5031599;28;20397;-82
2022/07/10 03:40:53;;;;;;;5.10;1.40;;;13.50;99.90;;;;;;5032071;28;20752;-82
2022/07/10 03:43:18;;;;;;;3.93;1.33;;;13.50;99.90;;;;;;5030630;28;20389;-81
2022/07/10 03:45:44;;;;;;;4.80;1.83;;;13.60;99.90;;;;;;5029197;28;20756;-82
2022/07/10 03:48:10;;;;;;;7.60;1.80;;;13.50;99.90;;;;;;5031500;28;20424;-81
2022/07/10 03:50:35;;;;;;;4.67;1.60;;;13.60;99.90;;;;;;5030847;28;20400;-82
2022/07/10 03:53:01;;;;;;;6.03;1.80;;;13.60;99.90;;;;;;5029823;28;20381;-82
2022/07/10 03:55:26;;;;;;;5.57;1.90;;;13.60;99.90;;;;;;5030298;28;20424;-82
2022/07/10 03:57:56;;;;;;;4.00;1.60;;;13.70;99.90;;;;;;5032234;28;20386;-82
2022/07/10 04:00:24;;;;;;;5.47;1.50;;;13.80;99.90;;;;;;5031597;28;20770;-82
2022/07/10 04:03:00;;;;;;;5.47;1.70;;;13.80;99.90;;;;;;5030622;28;20389;-81
2022/07/10 04:05:26;;;;;;;5.17;1.60;;;13.70;99.90;;;;;;5029722;28;20488;-82
2022/07/10 04:07:53;;;;;;;5.35;1.38;;;13.80;99.90;;;;;;5030197;28;21025;-81
2022/07/10 04:10:19;;;;;;;6.10;1.85;;;13.80;99.90;;;;;;5029810;28;20735;-81
2022/07/10 04:12:44;;;;;;;5.43;1.52;;;13.80;99.90;;;;;;5029460;28;20389;-82
2022/07/10 04:15:11;;;;;;;6.28;1.58;;;13.80;99.90;;;;;;5030178;28;20541;-82
2022/07/10 04:17:36;;;;;;;4.40;1.42;;;13.90;99.90;;;;;;5030493;28;20392;-81
2022/07/10 04:20:03;;;;;;;4.25;1.45;;;13.90;99.90;;;;;;5030665;28;20374;-82
2022/07/10 04:22:28;;;;;;;4.38;1.60;;;14.00;99.90;;;;;;5029815;28;20491;-82
2022/07/10 04:24:55;;;;;;;6.57;2.10;;;14.00;99.90;;;;;;5029431;28;20425;-82
2022/07/10 04:27:20;;;;;;;3.35;1.42;;;14.10;99.90;;;;;;5031894;28;20381;-82
2022/07/10 04:29:47;;;;;;;7.80;1.80;;;14.10;99.90;;;;;;5031104;28;20451;-83
2022/07/10 04:32:12;;;;;;;4.30;1.70;;;14.20;99.90;;;;;;5028857;28;20393;-81
2022/07/10 04:34:38;;;;;;;5.07;1.70;;;14.20;99.90;;;;;;5029721;28;20934;-82
2022/07/10 04:37:05;;;;;;;5.87;1.70;;;14.20;99.90;;;;;;5028476;28;21017;-82
2022/07/10 04:39:30;;;;;;;6.10;2.13;;;14.30;99.90;;;;;;5030595;28;20385;-82
2022/07/10 04:41:56;;;;;;;5.53;1.67;;;14.30;99.90;;;;;;5030263;28;20385;-83
2022/07/10 04:44:22;;;;;;;6.72;1.70;;;14.30;99.90;;;;;;5030486;28;20382;-82
2022/07/10 04:46:47;;;;;;;6.83;2.10;;;14.30;99.90;;;;;;5030722;28;20382;-82
2022/07/10 04:49:13;;;;;;;6.50;1.83;;;14.40;99.90;;;;;;5029866;28;20369;-83
2022/07/10 04:51:39;;;;;;;7.07;2.08;;;14.40;99.90;;;;;;5030984;28;20507;-82
2022/07/10 04:54:05;;;;;;;5.65;1.70;;;14.40;99.90;;;;;;5029849;28;20401;-82
2022/07/10 04:56:30;;;;;;;5.63;1.70;;;14.50;99.90;;;;;;5029949;28;20752;-83
2022/07/10 04:58:56;;;;;;;6.63;1.83;;;14.50;99.90;;;;;;5030417;28;20381;-82
2022/07/10 05:01:21;;;;;;;6.33;1.90;;;14.50;99.90;;;;;;5030385;28;20810;-82
2022/07/10 05:03:47;;;;;;;5.30;1.83;;;14.60;99.90;;;;;;5030485;28;21217;-82
2022/07/10 05:06:13;;;;;;;7.40;2.03;;;14.60;99.90;;;;;;5030150;28;20444;-82
2022/07/10 05:08:39;;;;;;;6.50;1.70;;;14.60;99.90;;;;;;5030483;28;20381;-82
2022/07/10 05:11:05;;;;;;;4.97;1.90;;;14.80;99.90;;;;;;5029444;28;20405;-82
2022/07/10 05:13:31;;;;;;;5.97;1.70;;;14.90;99.90;;;;;;5030350;28;20936;-82
2022/07/10 05:15:56;;;;;;;6.23;1.93;;;15.00;99.90;;;;;;5029095;28;20386;-82
2022/07/10 05:18:22;;;;;;;5.82;1.80;;;15.10;99.90;;;;;;5030564;28;20381;-83
2022/07/10 05:20:49;;;;;;;5.50;1.50;;;15.20;99.90;;;;;;5029498;28;20377;-82
2022/07/10 05:23:15;;;;;;;7.57;1.80;;;15.20;99.90;;;;;;5028780;28;20451;-82
2022/07/10 05:25:41;;;;;;;7.70;1.92;;;15.10;99.90;;;;;;5029394;28;20446;-81
2022/07/10 05:28:07;;;;;;;10.67;2.33;;;15.10;99.90;;;;;;5030323;28;20385;-82
2022/07/10 05:30:33;;;;;;;6.30;1.88;;;15.00;99.90;;;;;;5029443;28;20468;-81
2022/07/10 05:32:59;;;;;;;5.38;1.90;;;15.10;99.90;;;;;;5029727;28;20385;-82
2022/07/10 05:35:26;;;;;;;5.28;1.65;;;15.20;99.90;;;;;;5027761;28;20415;-82
2022/07/10 05:37:52;;;;;;;4.22;1.80;;;15.20;99.90;;;;;;5030409;28;20424;-81
2022/07/10 05:40:18;;;;;;;7.30;1.88;;;15.20;99.90;;;;;;5029668;28;20381;-82
2022/07/10 05:42:44;;;;;;;5.45;2.00;;;15.30;99.90;;;;;;5029246;28;20396;-82
2022/07/10 05:45:11;;;;;;;7.35;1.95;;;15.30;99.90;;;;;;5029265;28;20391;-82
2022/07/10 05:47:37;;;;;;;8.25;2.17;;;15.20;99.90;;;;;;5028565;28;20472;-81
2022/07/10 05:50:03;;;;;;;5.50;2.00;;;15.20;99.90;;;;;;5028092;28;20966;-81
2022/07/10 05:52:29;;;;;;;8.25;2.47;;;15.30;99.90;;;;;;5029168;28;20376;-82
2022/07/10 05:54:58;;;;;;;8.03;2.13;;;15.50;99.90;;;;;;5029152;28;20492;-81
2022/07/10 05:57:24;;;;;;;8.00;2.00;;;15.60;99.90;;;;;;5029252;28;20389;-82
2022/07/10 05:59:50;;;;;;;5.45;2.40;;;15.70;99.90;;;;;;5029643;28;21172;-81
2022/07/10 06:02:16;;;;;;;6.35;1.85;;;15.70;99.90;;;;;;5028033;28;20834;-81
2022/07/10 06:04:42;;;;;;;4.60;2.00;;;15.80;99.90;;;;;;5028106;28;20369;-81
2022/07/10 06:07:08;;;;;;;7.68;1.83;;;15.90;99.90;;;;;;5028735;28;20370;-81
2022/07/10 06:09:34;;;;;;;9.50;2.28;;;15.90;99.90;;;;;;5028002;28;20427;-82
2022/07/10 06:12:00;;;;;;;6.22;1.75;;;16.00;99.90;;;;;;5027069;28;20409;-82
2022/07/10 06:14:25;;;;;;;11.38;2.13;;;16.70;99.90;;;;;;5029119;28;20405;-82
2022/07/10 06:16:51;;;;;;;7.30;1.97;;;16.30;99.90;;;;;;5029339;28;20381;-82
2022/07/10 06:19:18;;;;;;;4.90;2.00;;;16.30;99.90;;;;;;5029219;28;20480;-82
2022/07/10 06:21:44;;;;;;;6.03;2.15;;;16.40;99.90;;;;;;5029516;28;20394;-82
2022/07/10 06:24:10;;;;;;;7.25;2.30;;;16.50;99.90;;;;;;5027695;28;20431;-82
2022/07/10 06:26:35;;;;;;;7.15;2.33;;;16.70;99.90;;;;;;5027277;28;20405;-82
2022/07/10 06:29:01;;;;;;;7.85;2.03;;;16.70;99.90;;;;;;5028283;28;20385;-82
2022/07/10 06:31:28;;;;;;;8.17;2.33;;;16.60;99.90;;;;;;5028872;28;20871;-81
2022/07/10 06:33:54;;;;;;;6.38;2.13;;;16.80;99.90;;;;;;5027805;28;20482;-82
2022/07/10 06:36:20;;;;;;;6.78;2.33;;;16.90;99.90;;;;;;5029463;28;20496;-82
2022/07/10 06:38:45;;;;;;;5.30;2.00;;;16.90;99.90;;;;;;5030023;28;20374;-82
2022/07/10 06:41:11;;;;;;;7.30;2.10;;;16.80;99.90;;;;;;5030276;28;20384;-82
2022/07/10 06:43:36;;;;;;;6.47;1.87;;;16.50;99.90;;;;;;5027861;28;20409;-82
2022/07/10 06:46:02;;;;;;;8.98;2.25;;;16.80;99.90;;;;;;5029422;28;20377;-82
2022/07/10 06:48:28;;;;;;;7.03;2.08;;;16.90;99.90;;;;;;5029004;28;20381;-82
2022/07/10 06:50:54;;;;;;;8.23;2.20;;;17.60;99.90;;;;;;5028429;28;20473;-82
2022/07/10 06:53:23;;;;;;;7.22;2.30;;;18.00;99.90;;;;;;5029504;28;20882;-82
2022/07/10 06:55:52;;;;;;;6.05;1.90;;;;;;;;;;5029777;28;20389;-82
2022/07/10 06:58:20;;;;;;;5.60;2.10;;;;;;;;;;5028050;28;20566;-82
2022/07/10 07:00:46;;;;;;;8.52;2.10;;;;;;;;;;5029711;28;20366;-83
2022/07/10 07:03:12;;;;;;;9.38;1.95;;;19.40;99.90;;;;;;5030061;28;20460;-83
2022/07/10 07:05:38;;;;;;;7.70;2.33;;;19.20;99.90;;;;;;5029010;28;20807;-83
2022/07/10 07:08:04;;;;;;;8.88;2.45;;;18.90;99.90;;;;;;5029087;28;20392;-83
2022/07/10 07:10:30;;;;;;;7.45;1.73;;;;;;;;;;5030354;28;20468;-81
2022/07/10 07:12:55;;;;;;;6.65;1.90;;;19.20;99.90;;;;;;5028398;28;20425;-83
2022/07/10 07:15:23;;;;;;;7.63;2.13;;;19.10;99.90;;;;;;5029691;28;20823;-83
2022/07/10 07:18:07;;;;;;;6.65;2.25;;;19.30;99.90;;;;;;5013112;28;20408;-82
2022/07/10 07:23:19;;;;;;;10.93;2.30;;;19.10;99.90;;;;;;5032556;28;20771;-83
2022/07/10 07:25:48;;;;;;;7.88;2.28;;;19.50;99.90;;;;;;5032279;28;20381;-84
2022/07/10 07:28:21;;;;;;;7.20;2.22;;;19.00;99.90;;;;;;5031220;28;20385;-82
2022/07/10 07:30:50;;;;;;;8.20;2.30;;;18.30;99.90;;;;;;5031306;28;20903;-82
2022/07/10 07:33:15;;;;;;;7.37;2.37;;;17.90;99.90;;;;;;5032857;28;20390;-84
2022/07/10 07:35:41;;;;;;;8.85;2.40;;;17.80;99.90;;;;;;5031838;28;20796;-82
2022/07/10 07:38:07;;;;;;;6.75;2.20;;;17.60;99.90;;;;;;5032739;28;20369;-83
2022/07/10 07:40:33;;;;;;;7.07;2.67;;;17.50;99.90;;;;;;5030587;28;20389;-83
2022/07/10 07:42:59;;;;;;;6.77;2.30;;;17.40;99.90;;;;;;5030391;28;20405;-83
2022/07/10 07:45:26;;;;;;;6.30;2.25;;;17.80;99.90;;;;;;5029837;28;20453;-83
2022/07/10 07:47:59;;;;;;;7.22;2.25;;;18.40;99.90;;;;;;5022245;28;20382;-83
2022/07/10 07:50:27;;;;;;;10.07;2.60;;;18.90;99.90;;;;;;5017388;28;21198;-82
2022/07/10 07:52:53;;;;;;;8.70;2.58;;;19.10;99.90;;;;;;5015231;28;20389;-83
2022/07/10 07:55:20;;;;;;;8.30;2.22;;;18.90;99.90;;;;;;5030264;28;20850;-83
2022/07/10 07:57:46;;;;;;;9.85;2.42;;;18.50;99.90;;;;;;5031695;28;20759;-82
2022/07/10 08:00:14;;;;;;;7.63;2.13;;;18.40;99.90;;;;;;5031185;28;20381;-83
2022/07/10 08:02:40;;;;;;;7.70;2.47;;;18.40;99.90;;;;;;5029803;28;20545;-82
2022/07/10 08:05:07;;;;;;;9.10;2.50;;;18.20;99.90;;;;;;5031157;28;20505;-82
2022/07/10 08:07:57;;;;;;;10.27;2.55;;;17.90;99.90;;;;;;5030451;28;20370;-82
2022/07/10 08:10:26;;;;;;;11.32;2.40;;;17.70;99.90;;;;;;5031051;28;20385;-83
2022/07/10 08:12:52;;;;;;;7.90;2.57;;;17.70;99.90;;;;;;5029546;28;20416;-81
2022/07/10 08:15:22;;;;;;;7.30;2.05;;;17.60;99.90;;;;;;5032069;28;20402;-83
2022/07/10 08:17:52;;;;;;;7.65;2.35;;;17.50;99.90;;;;;;5020387;28;20387;-81
2022/07/10 08:20:18;;;;;;;8.07;2.45;;;17.60;99.90;;;;;;5027132;28;20384;-81
2022/07/10 08:22:44;;;;;;;10.13;2.40;;;17.80;99.90;;;;;;5018516;28;20403;-82
2022/07/10 08:25:10;;;;;;;8.47;2.47;;;17.80;99.90;;;;;;5011266;28;20869;-81
2022/07/10 08:27:36;;;;;;;6.20;2.30;;;18.00;99.90;;;;;;5011358;28;20399;-83
2022/07/10 08:30:03;;;;;;;6.90;2.28;;;18.00;99.90;;;;;;5011670;28;20526;-83
2022/07/10 08:32:29;;;;;;;5.82;2.05;;;17.90;99.90;;;;;;5010311;28;20463;-81
2022/07/10 08:34:54;;;;;;;8.98;2.88;;;17.80;99.90;;;;;;5022848;28;20408;-82
2022/07/10 08:37:20;;;;;;;10.32;2.60;;;17.80;99.90;;;;;;5031832;28;20388;-84
2022/07/10 08:39:46;;;;;;;6.37;2.13;;;18.00;99.90;;;;;;5030215;28;20381;-82
2022/07/10 08:42:12;;;;;;;8.15;2.78;;;18.10;99.90;;;;;;5028166;28;20394;-82
2022/07/10 08:44:40;;;;;;;8.88;2.30;;;18.40;99.90;;;;;;5030408;28;20466;-81
2022/07/10 08:47:05;;;;;;;9.23;2.50;;;18.70;99.90;;;;;;5017339;28;20391;-81
2022/07/10 08:49:35;;;;;;;7.70;2.47;;;18.70;99.90;;;;;;5011511;28;20382;-82
2022/07/10 08:52:03;;;;;;;7.85;2.53;;;18.80;99.90;;;;;;5009749;28;20742;-81
2022/07/10 08:54:30;;;;;;;9.60;2.50;;;18.90;99.90;;;;;;5020135;28;20407;-83
2022/07/10 08:57:01;;;;;;;9.10;2.60;;;19.10;99.90;;;;;;5009632;28;20447;-82
2022/07/10 08:59:28;;;;;;;6.68;2.45;;;19.30;99.90;;;;;;4990377;28;20786;-84
2022/07/10 09:01:55;;;;;;;8.73;2.63;;;19.40;99.90;;;;;;5023971;28;20462;-82
2022/07/10 09:04:23;;;;;;;8.18;2.50;;;19.30;99.90;;;;;;5028033;28;20412;-81
2022/07/10 09:06:50;;;;;;;6.83;2.33;;;18.80;99.90;;;;;;5029202;28;20393;-83
2022/07/10 09:09:17;;;;;;;9.20;2.43;;;18.80;99.90;;;;;;5010420;28;20406;-83
2022/07/10 09:11:42;;;;;;;8.52;2.80;;;19.00;99.90;;;;;;5009444;28;20383;-83
2022/07/10 09:14:22;;;;;;;7.47;2.67;;;19.20;99.90;;;;;;5011047;28;20809;-81
2022/07/10 09:16:50;;;;;;;6.93;2.63;;;19.20;99.90;;;;;;5030790;28;20389;-80
2022/07/10 09:19:27;;;;;;;8.90;2.83;;;19.40;99.90;;;;;;5028261;28;20481;-82
2022/07/10 09:21:54;;;;;;;8.52;2.47;;;19.60;99.90;;;;;;5020030;28;20389;-81
2022/07/10 09:24:21;;;;;;;10.05;2.65;;;20.10;99.90;;;;;;5030702;28;20409;-81
2022/07/10 09:26:56;;;;;;;11.32;2.80;;;20.30;99.90;;;;;;5029723;28;20864;-82
2022/07/10 09:29:21;;;;;;;9.13;2.58;;;20.20;99.90;;;;;;5029913;28;20807;-84
2022/07/10 09:32:01;;;;;;;9.30;2.43;;;20.40;99.90;;;;;;5028427;28;20380;-81
2022/07/10 09:34:42;;;;;;;8.57;2.47;;;20.70;99.90;;;;;;5030860;28;20397;-81
2022/07/10 09:37:21;;;;;;;7.45;2.28;;;;;;;;;;5010004;28;20404;-83
2022/07/10 09:40:00;;;;;;;8.32;2.67;;;19.30;99.90;;;;;;5019419;28;20392;-83
2022/07/10 09:42:26;;;;;;;8.43;2.25;;;19.30;99.90;;;;;;5029548;28;20468;-81
2022/07/10 09:44:52;;;;;;;8.80;2.63;;;19.50;99.90;;;;;;5030245;28;20488;-81
2022/07/10 09:47:25;;;;;;;6.75;2.25;;;;;;;;;;5030327;28;20397;-82
2022/07/10 09:49:51;;;;;;;7.47;2.50;;;19.80;98.70;;;;;;5030507;28;20386;-83
2022/07/10 09:52:19;;;;;;;7.25;2.08;;;;;;;;;;5030498;28;20401;-83
2022/07/10 09:54:46;;;;;;;8.90;2.10;;;20.00;97.10;;;;;;5029195;28;20402;-82
2022/07/10 09:57:16;;;;;;;7.60;2.40;;;19.70;96.90;;;;;;5030676;28;20374;-83
2022/07/10 09:59:42;;;;;;;7.60;2.67;;;19.40;97.90;;;;;;5030161;28;20393;-83
2022/07/10 10:02:11;;;;;;;8.35;2.50;;;19.20;98.40;;;;;;5030457;28;20939;-81
2022/07/10 10:04:38;;;;;;;7.90;2.33;;;19.40;98.80;;;;;;5029021;28;20397;-82
2022/07/10 10:07:12;;;;;;;8.07;2.30;;;19.60;99.00;;;;;;5029320;28;20914;-83
2022/07/10 10:09:53;;;;;;;9.70;2.83;;;20.10;99.10;;;;;;5024733;28;20420;-83
2022/07/10 10:12:48;;;;;;;8.57;2.40;;;20.30;97.40;;;;;;5030685;28;20388;-82
2022/07/10 10:15:15;;;;;;;7.90;2.40;;;20.10;98.20;;;;;;5028594;28;20413;-83
2022/07/10 10:17:42;;;;;;;8.80;2.33;;;19.70;98.20;;;;;;5023392;28;20434;-83
2022/07/10 10:23:20;;;;;;;10.20;2.50;;;19.40;99.50;;;;;;5002425;28;20554;-83
2022/07/10 10:25:48;;;;;;;7.80;2.13;;;19.50;99.60;;;;;;5019720;28;20405;-83
2022/07/10 10:28:15;;;;;;;14.15;3.40;;;19.80;99.10;;;;;;5028451;28;20397;-82
2022/07/10 10:30:43;;;;;;;12.23;3.90;;;20.10;99.50;;;;;;5030386;28;20547;-82
2022/07/10 10:33:34;;;;;;;10.40;2.42;;;20.50;98.90;;;;;;5029455;28;20450;-83
2022/07/10 10:36:01;;;;;;;8.73;2.53;;;21.00;98.00;;;;;;5030938;28;20406;-83
2022/07/10 10:38:49;;;;;;;8.82;2.40;;;21.10;97.30;;;;;;5031863;28;20490;-82
2022/07/10 10:41:40;;;;;;;7.45;2.13;;;21.00;96.00;;;;;;5029620;28;20390;-84
2022/07/10 10:44:09;;;;;;;8.65;2.30;;;20.90;96.90;;;;;;5029450;28;20488;-83
2022/07/10 10:47:05;;;;;;;7.63;2.58;;;20.70;96.20;;;;;;5026177;28;20404;-83
2022/07/10 10:49:49;;;;;;;9.05;2.50;;;20.70;96.90;;;;;;5026934;28;20492;-82
2022/07/10 10:52:16;;;;;;;7.38;2.58;;;20.20;97.10;;;;;;5021233;28;20749;-82
2022/07/10 10:54:57;;;;;;;7.63;2.40;;;19.80;97.60;;;;;;5012448;28;20407;-83
2022/07/10 10:57:44;;;;;;;8.48;2.40;;;19.70;98.20;;;;;;5015921;28;20801;-84
2022/07/10 11:00:14;;;;;;;8.25;2.35;;;19.40;98.60;;;;;;5030559;28;20483;-83
2022/07/10 11:02:41;;;;;;;12.27;2.80;;;19.40;99.10;;;;;;5033195;28;20472;-83
2022/07/10 11:05:20;;;;;;;8.50;2.58;;;19.60;99.60;;;;;;5032240;28;20824;-83
2022/07/10 11:08:04;;;;;;;8.33;2.30;;;19.90;99.40;;;;;;5032234;28;20432;-84
2022/07/10 11:10:37;;;;;;;6.30;2.20;;;20.10;98.20;;;;;;5016260;28;20480;-84
2022/07/10 11:13:08;;;;;;;7.55;2.28;;;20.30;97.30;;;;;;5028589;28;20419;-83
2022/07/10 11:15:45;;;;;;;9.93;2.60;;;20.60;98.40;;;;;;5029884;28;20460;-83
2022/07/10 11:18:18;;;;;;;8.27;2.20;;;20.90;96.90;;;;;;5033197;28;20389;-83
2022/07/10 11:20:49;;;;;;;8.30;2.30;;;21.00;96.60;;;;;;5033405;28;20891;-83
2022/07/10 11:23:36;;;;;;;8.67;2.20;;;21.20;96.90;;;;;;5031871;28;20488;-83
2022/07/10 11:26:20;;;;;;;7.03;2.22;;;21.10;94.80;;;;;;5033586;28;20403;-82
2022/07/10 11:29:01;;;;;;;6.13;1.80;;;21.00;95.40;;;;;;5031982;28;20870;-81
2022/07/10 11:31:27;;;;;;;11.50;2.25;;;20.80;95.40;;;;;;5031470;28;20539;-84
2022/07/10 11:33:55;;;;;;;6.95;2.13;;;20.50;96.40;;;;;;5031262;28;20459;-82
2022/07/10 11:36:28;;;;;;;7.63;2.30;;;20.40;95.20;;;;;;5011626;28;20798;-83
2022/07/10 11:38:59;;;;;;;6.63;2.10;;;20.20;95.10;;;;;;5013575;28;20391;-83
2022/07/10 11:41:26;;;;;;;4.93;1.80;;;20.00;96.10;;;;;;5031993;28;20400;-83
2022/07/10 11:43:57;;;;;;;7.18;2.20;;;20.20;95.80;;;;;;5033770;28;20448;-83
2022/07/10 11:46:24;;;;;;;5.40;1.95;;;20.40;96.10;;;;;;5031206;28;20409;-82
2022/07/10 11:48:53;;;;;;;6.22;2.05;;;20.70;96.80;;;;;;5033457;28;20851;-82
2022/07/10 11:51:33;;;;;;;7.82;2.13;;;20.60;95.60;;;;;;5033106;28;20492;-83
2022/07/10 11:54:06;;;;;;;7.72;1.55;;;20.70;96.40;;;;;;5031641;28;20409;-84
2022/07/10 11:56:34;;;;;;;5.50;1.92;;;20.90;95.00;;;;;;5031513;28;20419;-84
2022/07/10 11:59:01;;;;;;;5.75;2.10;;;21.00;96.50;;;;;;5020545;28;20382;-84
2022/07/10 12:01:33;;;;;;;9.05;2.40;;;21.40;95.20;;;;;;5029588;28;20409;-84
2022/07/10 12:04:06;;;;;;;7.68;2.10;;;21.80;94.60;;;;;;5030331;28;20386;-83
2022/07/10 12:06:33;;;;;;;8.27;2.35;;;21.70;95.80;;;;;;5031276;28;20397;-84
2022/07/10 12:09:09;;;;;;;5.47;2.00;;;21.50;94.70;;;;;;5030935;28;21166;-83
2022/07/10 12:11:37;;;;;;;8.05;2.20;;;21.30;94.90;;;;;;5032250;28;20872;-84
2022/07/10 12:14:18;;;;;;;5.85;1.77;;;21.20;94.90;;;;;;5032149;28;20518;-83
2022/07/10 12:16:48;;;;;;;6.20;1.80;;;21.10;95.10;;;;;;5032542;28;20420;-84
2022/07/10 12:19:16;;;;;;;8.10;2.45;;;21.10;96.10;;;;;;5031927;28;20386;-85
2022/07/10 12:21:45;;;;;;;5.97;1.98;;;21.30;96.60;;;;;;5013787;28;20476;-85
2022/07/10 12:24:12;;;;;;;7.60;2.00;;;21.30;94.70;;;;;;5014255;28;20484;-84
2022/07/10 12:26:43;;;;;;;9.38;2.50;;;21.40;95.20;;;;;;5030773;28;20473;-82
2022/07/10 12:29:29;;;;;;;6.97;2.50;;;21.60;95.50;;;;;;5032881;28;21023;-83
2022/07/10 12:31:57;;;;;;;6.18;2.05;;;21.90;94.80;;;;;;5029788;28;20401;-85
2022/07/10 12:34:36;;;;;;;6.15;2.20;;;21.80;94.50;;;;;;5030957;28;20443;-84
2022/07/10 12:37:09;;;;;;;6.82;2.30;;;22.00;93.80;;;;;;5031135;28;20891;-83
2022/07/10 12:39:38;;;;;;;8.20;2.17;;;21.90;95.70;;;;;;5031994;28;20385;-84
2022/07/10 12:42:06;;;;;;;6.70;2.08;;;22.00;95.70;;;;;;5031074;28;20937;-83
2022/07/10 12:44:43;;;;;;;5.45;1.80;;;22.00;93.70;;;;;;5032203;28;20416;-83
2022/07/10 12:47:13;;;;;;;4.60;1.60;;;21.80;95.60;;;;;;5030462;28;20413;-83
2022/07/10 12:49:52;;;;;;;7.20;1.92;;;21.70;93.70;;;;;;5031668;28;20405;-84
2022/07/10 12:52:24;;;;;;;9.05;2.22;;;21.50;94.40;;;;;;5027292;28;20522;-85
2022/07/10 12:55:13;;;;;;;6.15;2.05;;;21.80;94.70;;;;;;5045977;28;20772;-84
2022/07/10 12:57:58;;;;;;;5.90;1.60;;;22.00;94.50;;;;;;5026196;28;20397;-84
2022/07/10 13:00:34;;;;;;;3.63;1.50;;;22.10;94.20;;;;;;5026912;28;20404;-84
2022/07/10 13:03:08;;;;;;;5.65;1.90;;;22.10;93.20;;;;;;5023299;28;20385;-84